sensor_id;sensor_type;location;lat;lon;timestamp;P1;durP1;ratioP1;P2;durP2;ratioP2
60006;SDS011;45863;50.336;3.536;2023-04-05T00:01:26;24.00;;;13.10;;
60006;SDS011;45863;50.336;3.536;2023-04-05T00:03:53;24.75;;;12.40;;
60006;SDS011;45863;50.336;3.536;2023-04-05T00:06:18;16.10;;;10.30;;
60006;SDS011;45863;50.336;3.536;2023-04-05T00:08:46;18.33;;;10.48;;
60006;SDS011;45863;50.336;3.536;2023-04-05T00:11:14;18.60;;;11.95;;
60006;SDS011;45863;50.336;3.536;2023-04-05T00:13:39;19.48;;;11.55;;
60006;SDS011;45863;50.336;3.536;2023-04-05T00:16:04;27.33;;;13.15;;
60006;SDS011;45863;50.336;3.536;2023-04-05T00:18:30;23.27;;;12.23;;
60006;SDS011;45863;50.336;3.536;2023-04-05T00:20:58;22.45;;;11.68;;
60006;SDS011;45863;50.336;3.536;2023-04-05T00:23:23;20.10;;;11.95;;
60006;SDS011;45863;50.336;3.536;2023-04-05T00:25:50;19.40;;;11.50;;
60006;SDS011;45863;50.336;3.536;2023-04-05T00:28:15;19.05;;;11.90;;
60006;SDS011;45863;50.336;3.536;2023-04-05T00:30:41;20.58;;;11.68;;
60006;SDS011;45863;50.336;3.536;2023-04-05T00:33:06;21.50;;;11.27;;
60006;SDS011;45863;50.336;3.536;2023-04-05T00:35:31;19.23;;;11.30;;
60006;SDS011;45863;50.336;3.536;2023-04-05T00:37:56;22.43;;;12.73;;
60006;SDS011;45863;50.336;3.536;2023-04-05T00:40:22;21.75;;;13.40;;
60006;SDS011;45863;50.336;3.536;2023-04-05T00:42:47;23.48;;;14.27;;
60006;SDS011;45863;50.336;3.536;2023-04-05T00:45:12;25.55;;;15.50;;
60006;SDS011;45863;50.336;3.536;2023-04-05T00:47:38;31.45;;;17.85;;
60006;SDS011;45863;50.336;3.536;2023-04-05T00:50:03;29.42;;;17.75;;
60006;SDS011;45863;50.336;3.536;2023-04-05T00:52:29;28.17;;;17.70;;
60006;SDS011;45863;50.336;3.536;2023-04-05T00:54:56;29.15;;;16.52;;
60006;SDS011;45863;50.336;3.536;2023-04-05T00:57:21;25.80;;;15.95;;
60006;SDS011;45863;50.336;3.536;2023-04-05T00:59:46;27.85;;;16.60;;
60006;SDS011;45863;50.336;3.536;2023-04-05T01:02:14;28.90;;;14.95;;
60006;SDS011;45863;50.336;3.536;2023-04-05T01:04:41;24.95;;;15.48;;
60006;SDS011;45863;50.336;3.536;2023-04-05T01:07:24;29.33;;;15.68;;
60006;SDS011;45863;50.336;3.536;2023-04-05T01:12:18;23.93;;;14.73;;
60006;SDS011;45863;50.336;3.536;2023-04-05T01:14:45;26.95;;;16.50;;
60006;SDS011;45863;50.336;3.536;2023-04-05T01:17:11;27.55;;;16.15;;
60006;SDS011;45863;50.336;3.536;2023-04-05T01:19:36;23.98;;;14.38;;
60006;SDS011;45863;50.336;3.536;2023-04-05T01:28:03;28.13;;;15.27;;
60006;SDS011;45863;50.336;3.536;2023-04-05T01:30:35;24.80;;;14.75;;
60006;SDS011;45863;50.336;3.536;2023-04-05T01:35:42;30.05;;;15.60;;
60006;SDS011;45863;50.336;3.536;2023-04-05T01:38:09;29.58;;;15.55;;
60006;SDS011;45863;50.336;3.536;2023-04-05T01:40:36;27.83;;;14.88;;
60006;SDS011;45863;50.336;3.536;2023-04-05T01:43:02;26.85;;;14.65;;
60006;SDS011;45863;50.336;3.536;2023-04-05T01:45:27;26.58;;;15.80;;
60006;SDS011;45863;50.336;3.536;2023-04-05T01:47:53;28.67;;;14.23;;
60006;SDS011;45863;50.336;3.536;2023-04-05T01:50:18;28.27;;;14.93;;
60006;SDS011;45863;50.336;3.536;2023-04-05T01:52:43;37.03;;;14.43;;
60006;SDS011;45863;50.336;3.536;2023-04-05T01:55:08;31.85;;;15.98;;
60006;SDS011;45863;50.336;3.536;2023-04-05T01:57:34;26.23;;;13.35;;
60006;SDS011;45863;50.336;3.536;2023-04-05T01:59:59;26.27;;;14.07;;
60006;SDS011;45863;50.336;3.536;2023-04-05T02:02:25;25.08;;;13.80;;
60006;SDS011;45863;50.336;3.536;2023-04-05T02:04:50;25.05;;;14.52;;
60006;SDS011;45863;50.336;3.536;2023-04-05T02:07:16;28.48;;;13.98;;
60006;SDS011;45863;50.336;3.536;2023-04-05T02:09:41;21.73;;;13.15;;
60006;SDS011;45863;50.336;3.536;2023-04-05T02:12:06;27.75;;;14.73;;
60006;SDS011;45863;50.336;3.536;2023-04-05T02:14:32;26.05;;;14.23;;
60006;SDS011;45863;50.336;3.536;2023-04-05T02:16:57;27.17;;;13.30;;
60006;SDS011;45863;50.336;3.536;2023-04-05T02:19:22;25.77;;;13.52;;
60006;SDS011;45863;50.336;3.536;2023-04-05T02:21:48;24.88;;;13.80;;
60006;SDS011;45863;50.336;3.536;2023-04-05T02:24:13;24.15;;;13.20;;
60006;SDS011;45863;50.336;3.536;2023-04-05T02:26:39;28.10;;;13.27;;
60006;SDS011;45863;50.336;3.536;2023-04-05T02:29:04;26.25;;;13.63;;
60006;SDS011;45863;50.336;3.536;2023-04-05T02:31:29;25.38;;;12.57;;
60006;SDS011;45863;50.336;3.536;2023-04-05T02:33:55;24.27;;;13.27;;
60006;SDS011;45863;50.336;3.536;2023-04-05T02:36:22;24.02;;;12.63;;
60006;SDS011;45863;50.336;3.536;2023-04-05T02:38:47;25.73;;;12.98;;
60006;SDS011;45863;50.336;3.536;2023-04-05T02:41:12;23.52;;;12.95;;
60006;SDS011;45863;50.336;3.536;2023-04-05T02:43:37;24.23;;;13.33;;
60006;SDS011;45863;50.336;3.536;2023-04-05T02:46:03;25.33;;;14.23;;
60006;SDS011;45863;50.336;3.536;2023-04-05T02:48:28;24.95;;;12.75;;
60006;SDS011;45863;50.336;3.536;2023-04-05T02:50:53;25.60;;;12.33;;
60006;SDS011;45863;50.336;3.536;2023-04-05T02:53:19;25.10;;;13.32;;
60006;SDS011;45863;50.336;3.536;2023-04-05T02:55:51;23.73;;;13.18;;
60006;SDS011;45863;50.336;3.536;2023-04-05T02:58:17;26.00;;;13.18;;
60006;SDS011;45863;50.336;3.536;2023-04-05T03:00:44;27.23;;;13.00;;
60006;SDS011;45863;50.336;3.536;2023-04-05T03:03:10;24.75;;;12.95;;
60006;SDS011;45863;50.336;3.536;2023-04-05T03:05:35;25.45;;;13.32;;
60006;SDS011;45863;50.336;3.536;2023-04-05T03:08:00;26.03;;;13.53;;
60006;SDS011;45863;50.336;3.536;2023-04-05T03:10:26;24.05;;;12.45;;
60006;SDS011;45863;50.336;3.536;2023-04-05T03:12:53;26.02;;;13.75;;
60006;SDS011;45863;50.336;3.536;2023-04-05T03:15:18;28.08;;;13.63;;
60006;SDS011;45863;50.336;3.536;2023-04-05T03:17:43;23.93;;;12.37;;
60006;SDS011;45863;50.336;3.536;2023-04-05T03:20:10;24.27;;;12.65;;
60006;SDS011;45863;50.336;3.536;2023-04-05T03:22:35;26.73;;;12.55;;
60006;SDS011;45863;50.336;3.536;2023-04-05T03:25:01;23.52;;;12.65;;
60006;SDS011;45863;50.336;3.536;2023-04-05T03:27:26;22.95;;;12.35;;
60006;SDS011;45863;50.336;3.536;2023-04-05T03:29:53;23.80;;;12.88;;
60006;SDS011;45863;50.336;3.536;2023-04-05T03:32:18;22.02;;;12.55;;
60006;SDS011;45863;50.336;3.536;2023-04-05T03:34:43;22.80;;;12.80;;
60006;SDS011;45863;50.336;3.536;2023-04-05T03:37:08;22.90;;;12.65;;
60006;SDS011;45863;50.336;3.536;2023-04-05T03:39:34;25.30;;;12.50;;
60006;SDS011;45863;50.336;3.536;2023-04-05T03:42:00;19.40;;;11.40;;
60006;SDS011;45863;50.336;3.536;2023-04-05T03:44:25;24.80;;;12.27;;
60006;SDS011;45863;50.336;3.536;2023-04-05T03:46:51;24.02;;;12.48;;
60006;SDS011;45863;50.336;3.536;2023-04-05T03:49:16;22.05;;;12.25;;
60006;SDS011;45863;50.336;3.536;2023-04-05T03:51:41;27.77;;;13.48;;
60006;SDS011;45863;50.336;3.536;2023-04-05T03:54:06;21.65;;;12.50;;
60006;SDS011;45863;50.336;3.536;2023-04-05T03:56:32;24.97;;;12.20;;
60006;SDS011;45863;50.336;3.536;2023-04-05T03:58:57;24.60;;;12.88;;
60006;SDS011;45863;50.336;3.536;2023-04-05T04:01:22;24.85;;;12.68;;
60006;SDS011;45863;50.336;3.536;2023-04-05T04:03:48;27.75;;;12.63;;
60006;SDS011;45863;50.336;3.536;2023-04-05T04:06:13;25.00;;;12.93;;
60006;SDS011;45863;50.336;3.536;2023-04-05T04:08:38;23.85;;;12.07;;
60006;SDS011;45863;50.336;3.536;2023-04-05T04:11:03;27.50;;;13.15;;
60006;SDS011;45863;50.336;3.536;2023-04-05T04:13:30;24.60;;;11.88;;
60006;SDS011;45863;50.336;3.536;2023-04-05T04:15:55;22.00;;;11.35;;
60006;SDS011;45863;50.336;3.536;2023-04-05T04:18:20;22.23;;;11.73;;
60006;SDS011;45863;50.336;3.536;2023-04-05T04:20:46;24.40;;;12.47;;
60006;SDS011;45863;50.336;3.536;2023-04-05T04:23:12;22.67;;;12.25;;
60006;SDS011;45863;50.336;3.536;2023-04-05T04:25:38;22.15;;;11.73;;
60006;SDS011;45863;50.336;3.536;2023-04-05T04:28:04;21.75;;;11.65;;
60006;SDS011;45863;50.336;3.536;2023-04-05T04:30:33;25.92;;;13.60;;
60006;SDS011;45863;50.336;3.536;2023-04-05T04:32:59;24.10;;;13.35;;
60006;SDS011;45863;50.336;3.536;2023-04-05T04:35:29;24.13;;;12.32;;
60006;SDS011;45863;50.336;3.536;2023-04-05T04:37:55;26.63;;;13.10;;
60006;SDS011;45863;50.336;3.536;2023-04-05T04:40:32;24.67;;;12.35;;
60006;SDS011;45863;50.336;3.536;2023-04-05T04:45:28;25.92;;;13.05;;
60006;SDS011;45863;50.336;3.536;2023-04-05T04:47:58;27.85;;;12.93;;
60006;SDS011;45863;50.336;3.536;2023-04-05T04:50:23;24.83;;;13.00;;
60006;SDS011;45863;50.336;3.536;2023-04-05T04:52:49;28.08;;;13.63;;
60006;SDS011;45863;50.336;3.536;2023-04-05T04:55:14;28.70;;;13.27;;
60006;SDS011;45863;50.336;3.536;2023-04-05T04:57:40;24.90;;;13.23;;
60006;SDS011;45863;50.336;3.536;2023-04-05T05:00:06;24.13;;;12.65;;
60006;SDS011;45863;50.336;3.536;2023-04-05T05:02:36;17.73;;;8.40;;
60006;SDS011;45863;50.336;3.536;2023-04-05T05:05:01;31.27;;;14.90;;
60006;SDS011;45863;50.336;3.536;2023-04-05T05:07:27;27.05;;;13.40;;
60006;SDS011;45863;50.336;3.536;2023-04-05T05:09:52;25.15;;;13.18;;
60006;SDS011;45863;50.336;3.536;2023-04-05T05:12:18;25.85;;;13.05;;
60006;SDS011;45863;50.336;3.536;2023-04-05T05:14:44;25.02;;;13.88;;
60006;SDS011;45863;50.336;3.536;2023-04-05T05:17:10;26.55;;;12.80;;
60006;SDS011;45863;50.336;3.536;2023-04-05T05:19:35;22.33;;;12.30;;
60006;SDS011;45863;50.336;3.536;2023-04-05T05:22:00;25.60;;;12.73;;
60006;SDS011;45863;50.336;3.536;2023-04-05T05:24:26;25.02;;;13.48;;
60006;SDS011;45863;50.336;3.536;2023-04-05T05:26:51;23.05;;;12.52;;
60006;SDS011;45863;50.336;3.536;2023-04-05T05:29:17;27.10;;;13.30;;
60006;SDS011;45863;50.336;3.536;2023-04-05T05:31:42;27.13;;;13.70;;
60006;SDS011;45863;50.336;3.536;2023-04-05T05:34:07;27.55;;;13.65;;
60006;SDS011;45863;50.336;3.536;2023-04-05T05:36:33;26.90;;;14.25;;
60006;SDS011;45863;50.336;3.536;2023-04-05T05:38:58;25.80;;;13.35;;
60006;SDS011;45863;50.336;3.536;2023-04-05T05:41:23;27.50;;;13.90;;
60006;SDS011;45863;50.336;3.536;2023-04-05T05:43:49;24.58;;;14.07;;
60006;SDS011;45863;50.336;3.536;2023-04-05T05:46:14;28.20;;;13.02;;
60006;SDS011;45863;50.336;3.536;2023-04-05T05:48:40;29.08;;;14.98;;
60006;SDS011;45863;50.336;3.536;2023-04-05T05:51:05;32.42;;;16.35;;
60006;SDS011;45863;50.336;3.536;2023-04-05T05:53:36;29.65;;;17.05;;
60006;SDS011;45863;50.336;3.536;2023-04-05T05:56:01;32.13;;;17.40;;
60006;SDS011;45863;50.336;3.536;2023-04-05T05:58:27;27.92;;;15.00;;
60006;SDS011;45863;50.336;3.536;2023-04-05T06:00:52;26.33;;;14.52;;
60006;SDS011;45863;50.336;3.536;2023-04-05T06:03:21;30.42;;;15.02;;
60006;SDS011;45863;50.336;3.536;2023-04-05T06:05:49;27.50;;;15.63;;
60006;SDS011;45863;50.336;3.536;2023-04-05T06:08:15;24.85;;;14.73;;
60006;SDS011;45863;50.336;3.536;2023-04-05T06:10:40;27.17;;;14.43;;
60006;SDS011;45863;50.336;3.536;2023-04-05T06:13:06;32.40;;;14.63;;
60006;SDS011;45863;50.336;3.536;2023-04-05T06:15:31;23.17;;;13.32;;
60006;SDS011;45863;50.336;3.536;2023-04-05T06:17:56;23.52;;;12.45;;
60006;SDS011;45863;50.336;3.536;2023-04-05T06:20:21;22.95;;;12.63;;
60006;SDS011;45863;50.336;3.536;2023-04-05T06:22:47;25.42;;;12.45;;
60006;SDS011;45863;50.336;3.536;2023-04-05T06:25:12;24.30;;;13.30;;
60006;SDS011;45863;50.336;3.536;2023-04-05T06:27:37;20.33;;;12.73;;
60006;SDS011;45863;50.336;3.536;2023-04-05T06:30:03;24.77;;;13.23;;
60006;SDS011;45863;50.336;3.536;2023-04-05T06:32:28;26.70;;;14.13;;
60006;SDS011;45863;50.336;3.536;2023-04-05T06:34:53;26.90;;;14.60;;
60006;SDS011;45863;50.336;3.536;2023-04-05T06:37:18;27.55;;;13.63;;
60006;SDS011;45863;50.336;3.536;2023-04-05T06:39:44;26.55;;;13.57;;
60006;SDS011;45863;50.336;3.536;2023-04-05T06:42:09;25.95;;;13.95;;
60006;SDS011;45863;50.336;3.536;2023-04-05T06:44:34;26.77;;;14.07;;
60006;SDS011;45863;50.336;3.536;2023-04-05T06:47:00;24.55;;;13.68;;
60006;SDS011;45863;50.336;3.536;2023-04-05T06:49:25;25.45;;;13.25;;
60006;SDS011;45863;50.336;3.536;2023-04-05T06:51:50;30.65;;;13.85;;
60006;SDS011;45863;50.336;3.536;2023-04-05T06:54:15;26.23;;;14.38;;
60006;SDS011;45863;50.336;3.536;2023-04-05T06:56:41;25.10;;;14.20;;
60006;SDS011;45863;50.336;3.536;2023-04-05T06:59:06;27.05;;;15.45;;
60006;SDS011;45863;50.336;3.536;2023-04-05T07:01:31;28.27;;;17.05;;
60006;SDS011;45863;50.336;3.536;2023-04-05T07:03:56;25.27;;;15.60;;
60006;SDS011;45863;50.336;3.536;2023-04-05T07:06:22;28.42;;;15.23;;
60006;SDS011;45863;50.336;3.536;2023-04-05T07:08:48;28.63;;;17.38;;
60006;SDS011;45863;50.336;3.536;2023-04-05T07:11:13;28.75;;;16.40;;
60006;SDS011;45863;50.336;3.536;2023-04-05T07:13:39;27.23;;;16.67;;
60006;SDS011;45863;50.336;3.536;2023-04-05T07:16:04;27.42;;;16.17;;
60006;SDS011;45863;50.336;3.536;2023-04-05T07:18:30;28.95;;;17.15;;
60006;SDS011;45863;50.336;3.536;2023-04-05T07:20:56;33.00;;;16.60;;
60006;SDS011;45863;50.336;3.536;2023-04-05T07:23:24;30.98;;;18.38;;
60006;SDS011;45863;50.336;3.536;2023-04-05T07:25:50;31.25;;;17.13;;
60006;SDS011;45863;50.336;3.536;2023-04-05T07:28:15;32.40;;;17.88;;
60006;SDS011;45863;50.336;3.536;2023-04-05T07:30:40;32.67;;;20.20;;
60006;SDS011;45863;50.336;3.536;2023-04-05T07:33:05;33.60;;;18.38;;
60006;SDS011;45863;50.336;3.536;2023-04-05T07:35:30;34.40;;;17.45;;
60006;SDS011;45863;50.336;3.536;2023-04-05T07:37:56;35.17;;;18.60;;
60006;SDS011;45863;50.336;3.536;2023-04-05T07:40:21;33.87;;;19.13;;
60006;SDS011;45863;50.336;3.536;2023-04-05T07:42:46;35.13;;;19.20;;
60006;SDS011;45863;50.336;3.536;2023-04-05T07:45:11;30.13;;;18.53;;
60006;SDS011;45863;50.336;3.536;2023-04-05T07:47:36;35.28;;;19.55;;
60006;SDS011;45863;50.336;3.536;2023-04-05T07:50:02;35.33;;;18.27;;
60006;SDS011;45863;50.336;3.536;2023-04-05T07:52:27;33.47;;;18.95;;
60006;SDS011;45863;50.336;3.536;2023-04-05T07:54:53;31.10;;;17.40;;
60006;SDS011;45863;50.336;3.536;2023-04-05T07:57:19;31.95;;;18.35;;
60006;SDS011;45863;50.336;3.536;2023-04-05T07:59:44;29.65;;;18.30;;
60006;SDS011;45863;50.336;3.536;2023-04-05T08:02:10;28.80;;;17.45;;
60006;SDS011;45863;50.336;3.536;2023-04-05T08:04:35;26.70;;;17.42;;
60006;SDS011;45863;50.336;3.536;2023-04-05T08:07:00;24.07;;;17.17;;
60006;SDS011;45863;50.336;3.536;2023-04-05T08:09:25;27.67;;;15.90;;
60006;SDS011;45863;50.336;3.536;2023-04-05T08:11:51;23.63;;;15.80;;
60006;SDS011;45863;50.336;3.536;2023-04-05T08:14:16;20.80;;;14.10;;
60006;SDS011;45863;50.336;3.536;2023-04-05T08:16:41;17.40;;;12.20;;
60006;SDS011;45863;50.336;3.536;2023-04-05T08:19:07;22.60;;;14.90;;
60006;SDS011;45863;50.336;3.536;2023-04-05T08:21:32;22.50;;;13.73;;
60006;SDS011;45863;50.336;3.536;2023-04-05T08:23:57;20.15;;;12.50;;
60006;SDS011;45863;50.336;3.536;2023-04-05T08:26:24;18.25;;;12.80;;
60006;SDS011;45863;50.336;3.536;2023-04-05T08:28:49;18.15;;;12.40;;
60006;SDS011;45863;50.336;3.536;2023-04-05T08:31:15;16.88;;;11.70;;
60006;SDS011;45863;50.336;3.536;2023-04-05T08:33:40;20.88;;;12.88;;
60006;SDS011;45863;50.336;3.536;2023-04-05T08:36:06;21.23;;;12.13;;
60006;SDS011;45863;50.336;3.536;2023-04-05T08:38:32;15.57;;;11.68;;
60006;SDS011;45863;50.336;3.536;2023-04-05T08:40:57;17.38;;;11.85;;
60006;SDS011;45863;50.336;3.536;2023-04-05T08:43:43;15.02;;;10.48;;
60006;SDS011;45863;50.336;3.536;2023-04-05T08:46:12;19.05;;;11.02;;
60006;SDS011;45863;50.336;3.536;2023-04-05T08:48:38;17.45;;;11.48;;
60006;SDS011;45863;50.336;3.536;2023-04-05T08:51:05;16.83;;;11.65;;
60006;SDS011;45863;50.336;3.536;2023-04-05T08:53:30;16.60;;;10.50;;
60006;SDS011;45863;50.336;3.536;2023-04-05T08:55:57;17.85;;;11.25;;
60006;SDS011;45863;50.336;3.536;2023-04-05T08:58:24;19.23;;;13.27;;
60006;SDS011;45863;50.336;3.536;2023-04-05T09:00:50;15.25;;;11.07;;
60006;SDS011;45863;50.336;3.536;2023-04-05T09:03:27;14.10;;;10.23;;
60006;SDS011;45863;50.336;3.536;2023-04-05T09:05:53;13.73;;;10.35;;
60006;SDS011;45863;50.336;3.536;2023-04-05T09:08:19;17.98;;;11.05;;
60006;SDS011;45863;50.336;3.536;2023-04-05T09:10:50;14.55;;;9.23;;
60006;SDS011;45863;50.336;3.536;2023-04-05T09:13:16;12.77;;;8.38;;
60006;SDS011;45863;50.336;3.536;2023-04-05T09:15:41;15.27;;;10.07;;
60006;SDS011;45863;50.336;3.536;2023-04-05T09:18:07;15.82;;;10.45;;
60006;SDS011;45863;50.336;3.536;2023-04-05T09:20:32;13.77;;;9.67;;
60006;SDS011;45863;50.336;3.536;2023-04-05T09:22:57;13.43;;;9.07;;
60006;SDS011;45863;50.336;3.536;2023-04-05T09:27:53;12.55;;;9.48;;
60006;SDS011;45863;50.336;3.536;2023-04-05T09:30:22;12.52;;;8.20;;
60006;SDS011;45863;50.336;3.536;2023-04-05T09:32:47;12.40;;;8.98;;
60006;SDS011;45863;50.336;3.536;2023-04-05T09:35:21;14.40;;;9.10;;
60006;SDS011;45863;50.336;3.536;2023-04-05T09:37:50;15.90;;;8.95;;
60006;SDS011;45863;50.336;3.536;2023-04-05T09:42:42;14.07;;;8.73;;
60006;SDS011;45863;50.336;3.536;2023-04-05T09:45:09;13.00;;;9.05;;
60006;SDS011;45863;50.336;3.536;2023-04-05T09:47:35;12.80;;;8.82;;
60006;SDS011;45863;50.336;3.536;2023-04-05T09:50:00;13.68;;;9.18;;
60006;SDS011;45863;50.336;3.536;2023-04-05T09:52:29;13.85;;;8.63;;
60006;SDS011;45863;50.336;3.536;2023-04-05T09:54:56;10.07;;;6.10;;
60006;SDS011;45863;50.336;3.536;2023-04-05T09:57:22;9.70;;;5.97;;
60006;SDS011;45863;50.336;3.536;2023-04-05T09:59:48;10.98;;;6.25;;
60006;SDS011;45863;50.336;3.536;2023-04-05T10:02:14;11.65;;;6.05;;
60006;SDS011;45863;50.336;3.536;2023-04-05T10:07:05;10.57;;;6.20;;
60006;SDS011;45863;50.336;3.536;2023-04-05T10:09:31;11.73;;;7.32;;
60006;SDS011;45863;50.336;3.536;2023-04-05T10:11:56;11.30;;;6.72;;
60006;SDS011;45863;50.336;3.536;2023-04-05T10:14:22;11.48;;;7.28;;
60006;SDS011;45863;50.336;3.536;2023-04-05T10:16:52;10.10;;;6.55;;
60006;SDS011;45863;50.336;3.536;2023-04-05T10:20:06;9.40;;;6.75;;
60006;SDS011;45863;50.336;3.536;2023-04-05T10:22:05;8.65;;;6.70;;
60006;SDS011;45863;50.336;3.536;2023-04-05T10:24:33;10.40;;;6.22;;
60006;SDS011;45863;50.336;3.536;2023-04-05T10:27:04;9.25;;;6.45;;
60006;SDS011;45863;50.336;3.536;2023-04-05T10:29:34;10.32;;;6.50;;
60006;SDS011;45863;50.336;3.536;2023-04-05T10:32:23;9.77;;;6.45;;
60006;SDS011;45863;50.336;3.536;2023-04-05T10:34:55;10.32;;;6.43;;
60006;SDS011;45863;50.336;3.536;2023-04-05T10:37:34;11.05;;;6.70;;
60006;SDS011;45863;50.336;3.536;2023-04-05T10:40:01;11.33;;;6.07;;
60006;SDS011;45863;50.336;3.536;2023-04-05T10:42:27;11.15;;;7.15;;
60006;SDS011;45863;50.336;3.536;2023-04-05T10:44:58;10.60;;;6.68;;
60006;SDS011;45863;50.336;3.536;2023-04-05T10:47:27;13.70;;;7.15;;
60006;SDS011;45863;50.336;3.536;2023-04-05T10:49:52;12.63;;;6.93;;
60006;SDS011;45863;50.336;3.536;2023-04-05T10:52:19;10.88;;;6.75;;
60006;SDS011;45863;50.336;3.536;2023-04-05T10:54:44;11.85;;;6.43;;
60006;SDS011;45863;50.336;3.536;2023-04-05T10:57:10;12.50;;;6.80;;
60006;SDS011;45863;50.336;3.536;2023-04-05T10:59:38;15.43;;;7.22;;
60006;SDS011;45863;50.336;3.536;2023-04-05T11:02:05;9.30;;;5.93;;
60006;SDS011;45863;50.336;3.536;2023-04-05T11:04:32;11.68;;;6.35;;
60006;SDS011;45863;50.336;3.536;2023-04-05T11:07:10;9.15;;;6.10;;
60006;SDS011;45863;50.336;3.536;2023-04-05T11:09:35;9.70;;;5.97;;
60006;SDS011;45863;50.336;3.536;2023-04-05T11:12:01;10.60;;;5.75;;
60006;SDS011;45863;50.336;3.536;2023-04-05T11:14:36;10.27;;;6.03;;
60006;SDS011;45863;50.336;3.536;2023-04-05T11:17:03;11.25;;;6.43;;
60006;SDS011;45863;50.336;3.536;2023-04-05T11:22:12;9.13;;;6.00;;
60006;SDS011;45863;50.336;3.536;2023-04-05T11:27:16;8.82;;;6.43;;
60006;SDS011;45863;50.336;3.536;2023-04-05T11:29:48;13.38;;;6.53;;
60006;SDS011;45863;50.336;3.536;2023-04-05T11:32:14;11.55;;;7.15;;
60006;SDS011;45863;50.336;3.536;2023-04-05T11:34:40;13.80;;;6.80;;
60006;SDS011;45863;50.336;3.536;2023-04-05T11:37:05;8.80;;;6.03;;
60006;SDS011;45863;50.336;3.536;2023-04-05T11:39:30;15.40;;;7.17;;
60006;SDS011;45863;50.336;3.536;2023-04-05T11:44:25;10.80;;;6.82;;
60006;SDS011;45863;50.336;3.536;2023-04-05T11:46:51;9.93;;;6.90;;
60006;SDS011;45863;50.336;3.536;2023-04-05T11:49:16;11.77;;;7.20;;
60006;SDS011;45863;50.336;3.536;2023-04-05T11:51:42;10.35;;;6.68;;
60006;SDS011;45863;50.336;3.536;2023-04-05T11:54:08;9.93;;;7.18;;
60006;SDS011;45863;50.336;3.536;2023-04-05T11:56:33;10.18;;;7.63;;
60006;SDS011;45863;50.336;3.536;2023-04-05T11:58:58;11.17;;;6.97;;
60006;SDS011;45863;50.336;3.536;2023-04-05T12:01:23;12.23;;;6.90;;
60006;SDS011;45863;50.336;3.536;2023-04-05T12:03:52;8.27;;;6.82;;
60006;SDS011;45863;50.336;3.536;2023-04-05T12:06:20;10.40;;;6.53;;
60006;SDS011;45863;50.336;3.536;2023-04-05T12:08:45;13.38;;;6.47;;
60006;SDS011;45863;50.336;3.536;2023-04-05T12:11:15;9.85;;;5.97;;
60006;SDS011;45863;50.336;3.536;2023-04-05T12:13:40;7.18;;;5.15;;
60006;SDS011;45863;50.336;3.536;2023-04-05T12:16:06;10.90;;;6.20;;
60006;SDS011;45863;50.336;3.536;2023-04-05T12:18:32;9.43;;;6.05;;
60006;SDS011;45863;50.336;3.536;2023-04-05T12:20:57;7.15;;;5.15;;
60006;SDS011;45863;50.336;3.536;2023-04-05T12:23:23;9.75;;;5.78;;
60006;SDS011;45863;50.336;3.536;2023-04-05T12:25:49;9.13;;;6.30;;
60006;SDS011;45863;50.336;3.536;2023-04-05T12:28:14;11.13;;;6.85;;
60006;SDS011;45863;50.336;3.536;2023-04-05T12:30:49;11.63;;;7.90;;
60006;SDS011;45863;50.336;3.536;2023-04-05T12:33:14;11.68;;;7.50;;
60006;SDS011;45863;50.336;3.536;2023-04-05T12:35:40;12.00;;;7.97;;
60006;SDS011;45863;50.336;3.536;2023-04-05T12:38:05;12.20;;;7.53;;
60006;SDS011;45863;50.336;3.536;2023-04-05T12:40:35;9.23;;;7.07;;
60006;SDS011;45863;50.336;3.536;2023-04-05T12:43:04;10.52;;;6.50;;
60006;SDS011;45863;50.336;3.536;2023-04-05T12:45:30;8.50;;;6.88;;
60006;SDS011;45863;50.336;3.536;2023-04-05T12:48:03;11.85;;;7.60;;
60006;SDS011;45863;50.336;3.536;2023-04-05T12:50:31;11.95;;;7.00;;
60006;SDS011;45863;50.336;3.536;2023-04-05T12:53:00;9.13;;;7.00;;
60006;SDS011;45863;50.336;3.536;2023-04-05T12:55:26;8.82;;;6.72;;
60006;SDS011;45863;50.336;3.536;2023-04-05T12:57:52;11.23;;;7.10;;
60006;SDS011;45863;50.336;3.536;2023-04-05T13:00:18;10.32;;;6.75;;
60006;SDS011;45863;50.336;3.536;2023-04-05T13:02:48;9.32;;;6.55;;
60006;SDS011;45863;50.336;3.536;2023-04-05T13:05:15;9.88;;;6.45;;
60006;SDS011;45863;50.336;3.536;2023-04-05T13:07:40;9.85;;;6.90;;
60006;SDS011;45863;50.336;3.536;2023-04-05T13:10:05;10.00;;;7.23;;
60006;SDS011;45863;50.336;3.536;2023-04-05T13:12:31;12.48;;;6.95;;
60006;SDS011;45863;50.336;3.536;2023-04-05T13:14:56;10.93;;;7.15;;
60006;SDS011;45863;50.336;3.536;2023-04-05T13:17:21;9.00;;;6.73;;
60006;SDS011;45863;50.336;3.536;2023-04-05T13:19:47;11.05;;;7.18;;
60006;SDS011;45863;50.336;3.536;2023-04-05T13:22:12;10.83;;;6.77;;
60006;SDS011;45863;50.336;3.536;2023-04-05T13:24:37;9.23;;;7.00;;
60006;SDS011;45863;50.336;3.536;2023-04-05T13:27:02;10.57;;;6.80;;
60006;SDS011;45863;50.336;3.536;2023-04-05T13:29:28;10.03;;;7.70;;
60006;SDS011;45863;50.336;3.536;2023-04-05T13:31:53;10.40;;;7.80;;
60006;SDS011;45863;50.336;3.536;2023-04-05T13:34:18;9.57;;;7.53;;
60006;SDS011;45863;50.336;3.536;2023-04-05T13:36:43;11.03;;;7.80;;
60006;SDS011;45863;50.336;3.536;2023-04-05T13:39:08;10.57;;;7.03;;
60006;SDS011;45863;50.336;3.536;2023-04-05T13:41:33;10.43;;;7.90;;
60006;SDS011;45863;50.336;3.536;2023-04-05T13:43:59;11.67;;;7.23;;
60006;SDS011;45863;50.336;3.536;2023-04-05T13:46:24;10.20;;;7.25;;
60006;SDS011;45863;50.336;3.536;2023-04-05T13:48:49;10.90;;;8.33;;
60006;SDS011;45863;50.336;3.536;2023-04-05T13:51:15;10.65;;;7.05;;
60006;SDS011;45863;50.336;3.536;2023-04-05T13:53:40;10.47;;;7.57;;
60006;SDS011;45863;50.336;3.536;2023-04-05T13:56:05;11.50;;;7.13;;
60006;SDS011;45863;50.336;3.536;2023-04-05T13:58:31;11.40;;;7.50;;
60006;SDS011;45863;50.336;3.536;2023-04-05T14:00:56;12.10;;;8.33;;
60006;SDS011;45863;50.336;3.536;2023-04-05T14:03:21;10.67;;;7.97;;
60006;SDS011;45863;50.336;3.536;2023-04-05T14:05:46;11.77;;;7.37;;
60006;SDS011;45863;50.336;3.536;2023-04-05T14:08:11;13.57;;;8.03;;
60006;SDS011;45863;50.336;3.536;2023-04-05T14:10:36;11.67;;;8.20;;
60006;SDS011;45863;50.336;3.536;2023-04-05T14:13:02;13.60;;;8.50;;
60006;SDS011;45863;50.336;3.536;2023-04-05T14:15:27;12.87;;;8.50;;
60006;SDS011;45863;50.336;3.536;2023-04-05T14:17:53;13.43;;;9.27;;
60006;SDS011;45863;50.336;3.536;2023-04-05T14:20:19;12.83;;;9.00;;
60006;SDS011;45863;50.336;3.536;2023-04-05T14:22:44;14.90;;;8.68;;
60006;SDS011;45863;50.336;3.536;2023-04-05T14:25:09;13.00;;;9.13;;
60006;SDS011;45863;50.336;3.536;2023-04-05T14:27:34;11.15;;;8.50;;
60006;SDS011;45863;50.336;3.536;2023-04-05T14:30:05;13.43;;;8.13;;
60006;SDS011;45863;50.336;3.536;2023-04-05T14:32:30;15.25;;;8.48;;
60006;SDS011;45863;50.336;3.536;2023-04-05T14:34:56;12.77;;;8.25;;
60006;SDS011;45863;50.336;3.536;2023-04-05T14:37:21;15.90;;;8.53;;
60006;SDS011;45863;50.336;3.536;2023-04-05T14:39:46;13.33;;;8.63;;
60006;SDS011;45863;50.336;3.536;2023-04-05T14:42:11;14.73;;;9.10;;
60006;SDS011;45863;50.336;3.536;2023-04-05T14:44:36;14.90;;;8.23;;
60006;SDS011;45863;50.336;3.536;2023-04-05T14:47:02;14.10;;;8.60;;
60006;SDS011;45863;50.336;3.536;2023-04-05T14:49:28;14.17;;;8.07;;
60006;SDS011;45863;50.336;3.536;2023-04-05T14:51:53;15.52;;;8.55;;